createdAt,value
2022-09-22T00:00:13.067Z,8.00
2022-09-22T00:04:17.117Z,8.10
2022-09-22T00:08:19.854Z,8.00
2022-09-22T00:12:22.950Z,8.00
2022-09-22T00:16:27.819Z,8.10
2022-09-22T00:20:31.872Z,8.20
2022-09-22T00:24:35.146Z,8.10
2022-09-22T00:28:39.102Z,8.20
2022-09-22T00:32:41.810Z,8.10
2022-09-22T00:36:46.222Z,8.20
2022-09-22T00:40:49.172Z,8.10
2022-09-22T00:44:51.862Z,7.80
2022-09-22T00:48:58.102Z,7.70
2022-09-22T00:53:07.079Z,7.90
2022-09-22T00:57:13.122Z,8.00
2022-09-22T01:01:16.126Z,7.90
2022-09-22T01:05:19.657Z,7.90
2022-09-22T01:09:24.671Z,7.60
2022-09-22T01:13:32.720Z,7.60
2022-09-22T01:17:45.110Z,7.80
2022-09-22T01:22:03.671Z,7.70
2022-09-22T01:26:35.570Z,7.30
2022-09-22T01:30:43.457Z,7.00
2022-09-22T01:34:51.828Z,7.00
2022-09-22T01:39:02.490Z,7.20
2022-09-22T01:43:13.194Z,6.90
2022-09-22T01:47:20.420Z,6.90
2022-09-22T01:51:28.252Z,6.90
2022-09-22T01:55:33.616Z,7.00
2022-09-22T01:59:40.151Z,7.00
2022-09-22T02:03:47.369Z,6.90
2022-09-22T02:07:53.844Z,6.80
2022-09-22T02:11:56.581Z,6.80
2022-09-22T02:16:02.037Z,6.80
2022-09-22T02:20:07.721Z,6.90
2022-09-22T02:24:28.747Z,6.80
2022-09-22T02:28:34.047Z,6.70
2022-09-22T02:32:39.403Z,6.90
2022-09-22T02:36:53.567Z,6.80
2022-09-22T02:41:02.406Z,6.80
2022-09-22T02:45:11.522Z,6.60
2022-09-22T02:49:17.850Z,6.60
2022-09-22T02:53:21.921Z,6.30
2022-09-22T02:57:24.672Z,6.10
2022-09-22T03:01:27.632Z,6.10
2022-09-22T03:05:30.361Z,6.20
2022-09-22T03:09:34.543Z,6.20
2022-09-22T03:13:37.206Z,6.00
2022-09-22T03:17:41.501Z,6.00
2022-09-22T03:21:44.205Z,5.80
2022-09-22T03:25:48.265Z,5.80
2022-09-22T03:29:50.964Z,6.10
2022-09-22T03:33:53.646Z,5.60
2022-09-22T03:37:56.328Z,5.40
2022-09-22T03:42:00.351Z,5.40
2022-09-22T03:46:03.937Z,5.60
2022-09-22T03:50:07.647Z,5.80
2022-09-22T03:54:10.410Z,6.00
2022-09-22T03:58:14.974Z,5.80
2022-09-22T04:02:18.393Z,5.50
2022-09-22T04:06:21.290Z,5.40
2022-09-22T04:10:24.007Z,5.30
2022-09-22T04:14:28.247Z,5.20
2022-09-22T04:18:30.958Z,5.20
2022-09-22T04:22:33.701Z,5.20
2022-09-22T04:26:36.373Z,5.20
2022-09-22T04:30:40.596Z,5.20
2022-09-22T04:34:43.921Z,5.10
2022-09-22T04:38:46.613Z,5.20
2022-09-22T04:42:49.405Z,5.30
2022-09-22T04:46:53.451Z,5.30
2022-09-22T04:50:56.139Z,5.30
2022-09-22T04:54:59.162Z,5.40
2022-09-22T04:59:02.075Z,5.50
2022-09-22T05:03:09.924Z,5.50
2022-09-22T05:07:12.691Z,5.40
2022-09-22T05:11:15.430Z,5.40
2022-09-22T05:15:18.309Z,5.40
2022-09-22T05:19:22.360Z,5.30
2022-09-22T05:23:25.098Z,5.40
2022-09-22T05:27:27.758Z,5.50
2022-09-22T05:31:30.550Z,5.60
2022-09-22T05:35:37.090Z,5.60
2022-09-22T05:39:40.008Z,5.50
2022-09-22T05:43:42.741Z,5.40
2022-09-22T05:47:45.712Z,5.40
2022-09-22T05:51:52.118Z,5.50
2022-09-22T05:55:56.818Z,5.70
2022-09-22T05:59:59.882Z,5.80
2022-09-22T06:04:03.002Z,5.80
2022-09-22T06:08:07.756Z,5.90
2022-09-22T06:12:10.446Z,5.90
2022-09-22T06:16:13.168Z,6.00
2022-09-22T06:20:16.029Z,6.20
2022-09-22T06:24:20.095Z,6.20
2022-09-22T06:28:23.154Z,6.40
2022-09-22T06:32:25.805Z,6.60
2022-09-22T06:36:31.485Z,6.60
2022-09-22T06:40:36.501Z,7.50
2022-09-22T06:44:40.026Z,7.80
2022-09-22T06:48:43.326Z,7.80
2022-09-22T06:52:46.111Z,7.70
2022-09-22T06:56:50.176Z,7.70
2022-09-22T07:00:53.629Z,7.70
2022-09-22T07:04:58.883Z,7.70
2022-09-22T07:09:01.818Z,7.90
2022-09-22T07:13:06.341Z,8.00
2022-09-22T07:17:09.062Z,8.10
2022-09-22T07:21:13.597Z,8.20
2022-09-22T07:25:16.410Z,8.30
2022-09-22T07:29:20.519Z,8.40
2022-09-22T07:33:24.022Z,8.50
2022-09-22T07:37:29.992Z,8.70
2022-09-22T07:41:41.275Z,9.10
2022-09-22T07:45:54.275Z,9.30
2022-09-22T07:49:56.959Z,9.40
2022-09-22T07:54:07.333Z,9.80
2022-09-22T07:58:12.877Z,10.30
2022-09-22T08:02:25.470Z,10.70
2022-09-22T08:06:29.023Z,11.80
2022-09-22T08:10:33.838Z,12.30
2022-09-22T08:14:36.582Z,13.60
2022-09-22T08:18:40.981Z,15.50
2022-09-22T08:22:44.174Z,16.80
2022-09-22T08:26:48.381Z,18.20
2022-09-22T08:30:51.339Z,18.40
2022-09-22T08:34:57.996Z,19.30
2022-09-22T08:39:00.900Z,20.30
2022-09-22T08:43:04.261Z,22.40
2022-09-22T08:47:07.175Z,21.90
2022-09-22T08:51:31.856Z,23.10
2022-09-22T08:55:34.699Z,24.50
2022-09-22T08:59:44.780Z,23.10
2022-09-22T09:03:57.619Z,22.90
2022-09-22T09:08:11.131Z,23.70
2022-09-22T09:12:37.441Z,25.00
2022-09-22T09:16:46.311Z,25.00
2022-09-22T09:20:52.043Z,24.90
2022-09-22T09:29:30.814Z,26.60
2022-09-22T09:33:42.957Z,25.40
2022-09-22T09:37:46.058Z,24.90
2022-09-22T09:41:50.874Z,25.80
2022-09-22T09:46:07.936Z,26.80
2022-09-22T09:50:12.246Z,26.90
2022-09-22T09:54:17.607Z,28.40
2022-09-22T09:58:35.887Z,28.50
2022-09-22T10:02:48.178Z,29.30
2022-09-22T10:06:50.935Z,29.10
2022-09-22T10:10:58.991Z,28.50
2022-09-22T10:15:03.066Z,29.50
2022-09-22T10:19:23.094Z,30.20
2022-09-22T10:23:28.754Z,29.70
2022-09-22T10:27:32.797Z,30.40
2022-09-22T10:31:38.511Z,30.70
2022-09-22T10:35:42.410Z,29.90
2022-09-22T10:39:48.013Z,30.20
2022-09-22T10:43:54.272Z,28.90
2022-09-22T10:48:00.274Z,29.70
2022-09-22T10:52:13.619Z,30.20
2022-09-22T10:56:26.799Z,31.00
2022-09-22T11:00:30.233Z,30.80
2022-09-22T11:04:45.357Z,28.30
2022-09-22T11:09:13.750Z,29.60
2022-09-22T11:13:29.880Z,29.70
2022-09-22T11:17:54.851Z,30.90
2022-09-22T11:22:19.037Z,30.70
2022-09-22T11:26:35.931Z,32.00
2022-09-22T11:30:45.209Z,32.90
2022-09-22T11:35:13.078Z,32.60
2022-09-22T11:39:22.315Z,31.60
2022-09-22T11:43:36.850Z,30.10
2022-09-22T11:47:51.390Z,30.00
2022-09-22T11:52:06.641Z,31.90
2022-09-22T11:56:38.215Z,32.60
2022-09-22T12:00:48.147Z,33.20
2022-09-22T12:04:56.373Z,31.50
2022-09-22T12:09:03.350Z,32.90
2022-09-22T12:13:11.911Z,33.60
2022-09-22T12:17:23.776Z,32.60
2022-09-22T12:21:43.156Z,30.70
2022-09-22T12:25:49.010Z,32.10
2022-09-22T12:29:59.185Z,32.00
2022-09-22T12:34:03.054Z,31.20
2022-09-22T12:38:05.794Z,30.80
2022-09-22T12:42:19.774Z,31.70
2022-09-22T12:46:29.845Z,31.30
2022-09-22T12:50:37.745Z,31.40
2022-09-22T12:54:40.430Z,31.00
2022-09-22T12:58:43.927Z,30.80
2022-09-22T13:02:49.775Z,30.40
2022-09-22T13:07:00.080Z,29.20
2022-09-22T13:11:04.333Z,27.80
2022-09-22T13:15:25.045Z,26.90
2022-09-22T13:19:29.131Z,28.30
2022-09-22T13:23:31.818Z,29.10
2022-09-22T13:27:34.490Z,28.10
2022-09-22T13:31:39.314Z,26.70
2022-09-22T13:35:45.517Z,26.40
2022-09-22T13:39:51.454Z,27.30
2022-09-22T13:43:57.475Z,27.00
2022-09-22T13:48:08.458Z,27.10
2022-09-22T13:52:17.730Z,27.60
2022-09-22T13:56:23.444Z,27.50
2022-09-22T14:00:28.944Z,27.50
2022-09-22T14:04:31.937Z,27.20
2022-09-22T14:08:37.369Z,26.70
2022-09-22T14:12:40.287Z,25.90
2022-09-22T14:16:49.322Z,25.10
2022-09-22T14:20:53.803Z,24.10
2022-09-22T14:25:00.242Z,23.10
2022-09-22T14:29:15.468Z,22.50
2022-09-22T14:33:23.347Z,22.90
2022-09-22T14:37:30.832Z,23.00
2022-09-22T14:41:37.815Z,22.80
2022-09-22T14:45:57.748Z,22.50
2022-09-22T14:50:08.637Z,21.60
2022-09-22T14:54:18.731Z,20.90
2022-09-22T14:58:27.275Z,20.70
2022-09-22T15:02:32.077Z,20.90
2022-09-22T15:06:39.654Z,20.90
2022-09-22T15:10:42.395Z,20.60
2022-09-22T15:14:47.086Z,20.50
2022-09-22T15:18:50.182Z,20.30
2022-09-22T15:22:54.562Z,20.10
2022-09-22T15:27:00.042Z,19.60
2022-09-22T15:31:05.833Z,19.40
2022-09-22T15:35:09.412Z,19.70
2022-09-22T15:39:19.978Z,19.80
2022-09-22T15:43:24.715Z,19.70
2022-09-22T15:47:29.674Z,19.40
2022-09-22T15:51:33.357Z,18.70
2022-09-22T15:55:36.053Z,18.60
2022-09-22T15:59:38.822Z,18.70
2022-09-22T16:03:42.870Z,18.70
2022-09-22T16:07:51.152Z,18.80
2022-09-22T16:11:54.866Z,18.80
2022-09-22T16:15:57.563Z,18.70
2022-09-22T16:20:02.058Z,18.30
2022-09-22T16:24:08.189Z,18.30
2022-09-22T16:28:11.446Z,17.70
2022-09-22T16:32:14.143Z,17.70
2022-09-22T16:36:18.199Z,17.80
2022-09-22T16:40:22.383Z,17.80
2022-09-22T16:44:25.122Z,17.60
2022-09-22T16:48:27.792Z,17.60
2022-09-22T16:52:32.208Z,17.30
2022-09-22T16:56:37.686Z,17.10
2022-09-22T17:00:40.402Z,17.00
2022-09-22T17:04:44.057Z,16.90
2022-09-22T17:08:48.062Z,16.80
2022-09-22T17:12:51.519Z,16.60
2022-09-22T17:16:56.541Z,16.60
2022-09-22T17:20:59.243Z,16.50
2022-09-22T17:25:03.315Z,16.40
2022-09-22T17:29:07.106Z,16.30
2022-09-22T17:33:09.810Z,16.20
2022-09-22T17:37:14.071Z,16.20
2022-09-22T17:41:19.698Z,16.00
2022-09-22T17:45:22.449Z,16.00
2022-09-22T17:49:42.562Z,15.90
2022-09-22T17:54:02.974Z,15.80
2022-09-22T17:58:09.869Z,15.70
2022-09-22T18:02:14.283Z,15.70
2022-09-22T18:06:19.078Z,15.60
2022-09-22T18:10:22.020Z,15.60
2022-09-22T18:14:26.269Z,15.50
2022-09-22T18:18:28.982Z,15.30
2022-09-22T18:22:31.677Z,15.20
2022-09-22T18:26:38.136Z,15.10
2022-09-22T18:30:42.251Z,14.90
2022-09-22T18:34:44.913Z,14.80
2022-09-22T18:38:47.590Z,14.70
2022-09-22T18:42:50.287Z,14.60
2022-09-22T18:46:54.464Z,14.50
2022-09-22T18:50:57.243Z,14.40
2022-09-22T18:55:00.367Z,14.20
2022-09-22T18:59:04.491Z,13.90
2022-09-22T19:03:08.518Z,13.70
2022-09-22T19:07:28.838Z,13.60
2022-09-22T19:11:34.926Z,13.50
2022-09-22T19:15:39.973Z,13.30
2022-09-22T19:19:49.714Z,13.30
2022-09-22T19:23:52.383Z,13.20
2022-09-22T19:27:55.111Z,13.10
2022-09-22T19:31:58.540Z,12.90
2022-09-22T19:36:02.754Z,12.90
2022-09-22T19:40:08.331Z,12.80
2022-09-22T19:44:11.043Z,12.70
2022-09-22T19:48:14.295Z,12.80
2022-09-22T19:52:18.529Z,12.50
2022-09-22T19:56:21.247Z,12.40
2022-09-22T20:00:26.670Z,12.50
2022-09-22T20:04:33.877Z,12.40
2022-09-22T20:08:38.546Z,12.30
2022-09-22T20:12:41.262Z,12.10
2022-09-22T20:16:46.551Z,12.10
2022-09-22T20:20:51.241Z,11.80
2022-09-22T20:24:57.330Z,11.60
2022-09-22T20:29:00.231Z,11.60
2022-09-22T20:33:02.915Z,11.40
2022-09-22T20:37:05.676Z,11.40
2022-09-22T20:41:16.862Z,11.40
2022-09-22T20:45:22.792Z,11.30
2022-09-22T20:49:25.993Z,11.30
2022-09-22T20:53:28.963Z,11.40
2022-09-22T20:57:33.012Z,11.30
2022-09-22T21:01:35.948Z,11.40
2022-09-22T21:05:38.638Z,11.20
2022-09-22T21:09:58.752Z,11.10
2022-09-22T21:14:05.464Z,11.10
2022-09-22T21:18:08.183Z,11.10
2022-09-22T21:22:10.855Z,11.20
2022-09-22T21:26:15.891Z,10.90
2022-09-22T21:30:19.966Z,10.60
2022-09-22T21:34:23.295Z,10.40
2022-09-22T21:38:26.029Z,10.30
2022-09-22T21:42:28.702Z,10.20
2022-09-22T21:46:34.657Z,10.20
2022-09-22T21:50:37.527Z,10.30
2022-09-22T21:54:40.737Z,10.40
2022-09-22T21:58:45.524Z,10.40
2022-09-22T22:03:06.809Z,10.40
2022-09-22T22:07:09.465Z,10.40
2022-09-22T22:11:14.243Z,10.50
2022-09-22T22:15:17.091Z,10.50
2022-09-22T22:19:24.749Z,10.50
2022-09-22T22:23:28.787Z,10.50
2022-09-22T22:27:31.498Z,10.40
2022-09-22T22:31:35.165Z,10.30
2022-09-22T22:35:39.177Z,10.20
2022-09-22T22:39:41.855Z,10.30
2022-09-22T22:43:45.281Z,10.20
2022-09-22T22:47:48.040Z,10.00
2022-09-22T22:51:52.414Z,9.90
2022-09-22T22:55:57.292Z,9.90
2022-09-22T22:59:59.998Z,9.60
2022-09-22T23:04:04.473Z,9.70
2022-09-22T23:08:09.105Z,9.50
2022-09-22T23:12:12.225Z,9.60
2022-09-22T23:16:17.068Z,9.60
2022-09-22T23:20:20.274Z,9.60
2022-09-22T23:24:24.295Z,9.30
2022-09-22T23:28:27.449Z,9.30
2022-09-22T23:32:30.150Z,9.00
2022-09-22T23:36:32.859Z,9.20
2022-09-22T23:40:37.249Z,9.30
2022-09-22T23:44:40.038Z,9.10
2022-09-22T23:48:42.795Z,9.20
2022-09-22T23:52:46.326Z,9.20
2022-09-22T23:56:50.355Z,9.10
